Time;durP1;ratioP1;P1;durP2;ratioP2;P2;SDS_P1;SDS_P2;PMS_P1;PMS_P2;Temp;Humidity;BMP_temperature;BMP_pressure;BME280_temperature;BME280_humidity;BME280_pressure;Samples;Min_cycle;Max_cycle;Signal;HPM_P1;HPM_P2
2021/07/27 00:00:12;;;;;;;10.50;7.08;;;;;;;20.70;100.00;99300.23;1719654;82;20991;-68
2021/07/27 00:02:40;;;;;;;11.10;6.78;;;;;;;20.69;100.00;99300.70;1681279;83;20945;-68
2021/07/27 00:05:09;;;;;;;9.25;7.03;;;;;;;20.71;100.00;99298.82;1685447;83;21084;-67
2021/07/27 00:07:38;;;;;;;9.65;6.97;;;;;;;20.72;100.00;99295.20;1691364;83;20904;-68
2021/07/27 00:10:09;;;;;;;9.80;7.75;;;;;;;20.73;100.00;99287.56;1691928;83;21022;-68
2021/07/27 00:12:37;;;;;;;11.05;7.50;;;;;;;20.74;100.00;99285.28;1716577;82;20956;-67
2021/07/27 00:15:06;;;;;;;13.80;7.92;;;;;;;20.74;100.00;99287.09;1715409;82;20904;-68
2021/07/27 00:17:33;;;;;;;11.08;7.37;;;;;;;20.74;100.00;99284.41;1719316;81;21432;-67
2021/07/27 00:20:00;;;;;;;11.57;7.92;;;;;;;20.70;100.00;99286.36;1685318;84;20889;-67
2021/07/27 00:22:28;;;;;;;10.58;7.15;;;;;;;20.69;100.00;99283.28;1696155;82;20981;-67
2021/07/27 00:24:57;;;;;;;11.85;7.60;;;;;;;20.68;100.00;99294.94;1715186;82;20991;-67
2021/07/27 00:27:25;;;;;;;9.98;7.15;;;;;;;20.65;100.00;99291.53;1735840;81;20991;-67
2021/07/27 00:29:53;;;;;;;11.83;8.10;;;;;;;20.63;100.00;99290.73;1730109;81;21053;-68
2021/07/27 00:32:21;;;;;;;11.15;7.08;;;;;;;20.61;100.00;99292.13;1695608;81;20885;-68
2021/07/27 00:34:50;;;;;;;9.80;6.97;;;;;;;20.63;100.00;99288.91;1688216;82;21435;-68
2021/07/27 00:37:20;;;;;;;9.50;7.62;;;;;;;20.65;100.00;99286.17;1728935;81;20961;-68
2021/07/27 00:39:48;;;;;;;12.68;7.30;;;;;;;20.66;100.00;99286.09;1715280;81;20900;-68
2021/07/27 00:42:17;;;;;;;12.13;7.03;;;;;;;20.65;100.00;99289.72;1715845;82;21103;-68
2021/07/27 00:44:44;;;;;;;12.03;7.65;;;;;;;20.65;100.00;99286.17;1724557;81;20837;-68
2021/07/27 00:47:13;;;;;;;10.05;7.28;;;;;;;20.65;100.00;99284.36;1690648;83;20868;-67
2021/07/27 00:49:41;;;;;;;10.60;7.50;;;;;;;20.65;100.00;99287.03;1685227;83;20955;-68
2021/07/27 00:52:09;;;;;;;11.80;7.12;;;;;;;20.64;100.00;99284.42;1698754;81;20980;-68
2021/07/27 00:54:37;;;;;;;10.58;7.55;;;;;;;20.63;100.00;99280.88;1719524;81;21080;-68
2021/07/27 00:57:05;;;;;;;10.55;7.50;;;;;;;20.62;100.00;99275.11;1691713;82;20885;-68
2021/07/27 00:59:33;;;;;;;11.22;7.35;;;;;;;20.60;100.00;99281.02;1735309;82;20952;-67
2021/07/27 01:02:01;;;;;;;10.78;7.35;;;;;;;20.61;100.00;99282.75;1734924;82;21467;-68
2021/07/27 01:04:29;;;;;;;12.75;7.85;;;;;;;20.63;100.00;99286.23;1717382;82;20957;-68
2021/07/27 01:06:58;;;;;;;10.48;7.67;;;;;;;20.63;100.00;99283.55;1712956;82;21428;-68
2021/07/27 01:09:26;;;;;;;9.00;7.35;;;;;;;20.62;100.00;99288.52;1685384;83;20973;-68
2021/07/27 01:12:00;;;;;;;9.98;7.42;;;;;;;20.60;100.00;99288.19;1714664;81;20848;-68
2021/07/27 01:14:28;;;;;;;10.90;7.75;;;;;;;20.58;100.00;99287.38;1715063;82;20956;-68
2021/07/27 01:16:57;;;;;;;11.03;7.83;;;;;;;20.55;100.00;99279.48;1693871;82;20965;-68
2021/07/27 01:42:04;;;;;;;12.88;8.70;;;;;;;20.39;100.00;99300.25;1697841;82;21529;-68
2021/07/27 01:43:40;;;;;;;12.10;8.48;;;;;;;20.37;100.00;99299.89;1731419;81;20896;-68
2021/07/27 01:46:16;;;;;;;12.88;8.23;;;;;;;20.35;100.00;99296.41;1714121;82;21478;-68
2021/07/27 01:48:40;;;;;;;;;;;;;;;20.34;100.00;99287.97;1736469;81;20832;-68
2021/07/27 01:51:16;;;;;;;14.98;8.00;;;;;;;20.32;100.00;99283.11;1735615;81;20373;-67
2021/07/27 01:53:54;;;;;;;12.37;8.05;;;;;;;20.31;100.00;99287.59;1733739;81;20959;-68
2021/07/27 01:56:24;;;;;;;13.08;7.95;;;;;;;20.31;100.00;99284.05;1735527;81;20991;-67
2021/07/27 01:58:51;;;;;;;13.10;7.75;;;;;;;20.31;100.00;99280.90;1708631;81;21128;-67
2021/07/27 02:01:23;;;;;;;13.75;8.50;;;;;;;20.31;100.00;99276.01;1709093;82;20844;-67
2021/07/27 02:03:49;;;;;;;14.95;8.38;;;;;;;20.29;100.00;99276.08;1720684;82;21455;-67
2021/07/27 02:06:17;;;;;;;12.13;8.25;;;;;;;20.27;100.00;99279.29;1722843;82;20850;-67
2021/07/27 02:08:46;;;;;;;10.98;8.53;;;;;;;20.25;100.00;99286.99;1722687;82;21463;-67
2021/07/27 02:11:20;;;;;;;15.25;8.53;;;;;;;20.26;100.00;99292.75;1709098;82;21450;-68
2021/07/27 02:13:52;;;;;;;14.30;8.28;;;;;;;20.24;100.00;99287.93;1693144;82;21475;-68
2021/07/27 02:16:20;;;;;;;17.23;8.40;;;;;;;20.20;100.00;99284.98;1697616;81;21483;-68
2021/07/27 02:18:48;;;;;;;13.88;7.78;;;;;;;20.18;100.00;99282.37;1735156;81;21439;-67
2021/07/27 02:21:16;;;;;;;14.55;7.87;;;;;;;20.20;100.00;99287.66;1722781;81;20952;-67
2021/07/27 02:23:44;;;;;;;16.40;7.50;;;;;;;20.18;100.00;99289.53;1692479;84;21114;-67
2021/07/27 02:26:11;;;;;;;14.03;7.78;;;;;;;20.15;100.00;99285.18;1692589;83;20932;-67
2021/07/27 02:28:39;;;;;;;10.38;8.15;;;;;;;20.10;100.00;99289.86;1721539;82;21106;-67
2021/07/27 02:31:12;;;;;;;16.15;8.20;;;;;;;20.10;100.00;99285.37;1713986;82;20952;-68
2021/07/27 02:33:37;;;;;;;12.30;8.00;;;;;;;20.05;100.00;99280.69;1722915;82;20904;-68
2021/07/27 02:36:05;;;;;;;12.65;8.40;;;;;;;20.03;100.00;99276.33;1722848;82;21939;-68
2021/07/27 02:38:33;;;;;;;15.58;8.08;;;;;;;20.00;100.00;99281.81;1723130;82;21414;-68
2021/07/27 02:41:03;;;;;;;11.20;8.20;;;;;;;19.96;100.00;99278.40;1719355;82;20948;-67
2021/07/27 02:43:32;;;;;;;14.07;8.35;;;;;;;19.94;100.00;99285.63;1719788;81;20840;-67
2021/07/27 02:46:00;;;;;;;11.68;8.13;;;;;;;19.95;100.00;99282.48;1709995;82;21490;-67
2021/07/27 02:48:28;;;;;;;11.93;8.58;;;;;;;19.93;100.00;99278.53;1715053;82;21139;-67
2021/07/27 02:51:01;;;;;;;13.13;8.45;;;;;;;19.93;100.00;99285.69;1715046;82;21439;-68
2021/07/27 02:53:30;;;;;;;;;;;;;;;19.92;100.00;99289.30;1731692;81;20980;-68
2021/07/27 02:55:59;;;;;;;10.25;8.25;;;;;;;19.90;100.00;99280.00;1699633;82;20083;-68
2021/07/27 02:58:30;;;;;;;13.40;8.53;;;;;;;19.91;100.00;99282.20;1714844;82;21431;-68
2021/07/27 03:01:01;;;;;;;12.20;8.58;;;;;;;19.89;100.00;99279.59;1716029;81;21092;-68
2021/07/27 03:03:41;;;;;;;15.63;8.90;;;;;;;19.89;100.00;99280.94;1722536;81;20872;-68
2021/07/27 03:06:12;;;;;;;11.97;8.03;;;;;;;19.89;100.00;99275.58;1730073;81;20842;-67
2021/07/27 03:08:50;;;;;;;12.75;8.55;;;;;;;19.90;100.00;99275.98;1729678;81;21462;-68
2021/07/27 03:11:16;;;;;;;14.38;7.92;;;;;;;19.91;100.00;99276.38;1711054;81;20947;-67
2021/07/27 03:13:44;;;;;;;12.40;8.28;;;;;;;19.89;100.00;99274.23;1694382;82;22002;-68
2021/07/27 03:16:19;;;;;;;12.60;8.05;;;;;;;19.89;100.00;99276.05;1685341;83;20897;-68
2021/07/27 03:18:49;;;;;;;16.93;8.10;;;;;;;19.90;100.00;99277.78;1685006;85;20929;-67
2021/07/27 03:21:22;;;;;;;13.32;8.18;;;;;;;19.90;100.00;99272.43;1684943;83;20951;-66
2021/07/27 03:23:50;;;;;;;15.43;8.38;;;;;;;19.91;100.00;99280.40;1687157;83;21452;-66
2021/07/27 03:26:18;;;;;;;14.87;7.53;;;;;;;19.93;100.00;99285.22;1712840;82;21499;-65
2021/07/27 03:28:45;;;;;;;14.13;8.50;;;;;;;20.00;100.00;99280.48;1714982;82;21039;-60
2021/07/27 03:31:13;;;;;;;13.80;8.43;;;;;;;20.04;100.00;99280.75;1703180;82;20893;-63
2021/07/27 03:33:40;;;;;;;10.23;8.15;;;;;;;20.07;100.00;99281.48;1691201;81;20900;-64
2021/07/27 03:36:08;;;;;;;15.98;8.60;;;;;;;20.11;100.00;99279.08;1714476;82;20900;-64
2021/07/27 03:38:40;;;;;;;16.80;9.10;;;;;;;20.14;100.00;99268.70;1714785;82;21411;-64
2021/07/27 03:41:12;;;;;;;14.23;9.30;;;;;;;20.18;100.00;99274.33;1709245;82;21483;-63
2021/07/27 03:43:40;;;;;;;;;;;;;;;20.25;100.00;99277.62;1702619;82;21423;-63
2021/07/27 03:46:08;;;;;;;22.87;10.95;;;;;;;20.32;100.00;99282.64;1731224;81;20442;-65
2021/07/27 03:48:36;;;;;;;19.65;10.32;;;;;;;20.38;100.00;99281.53;1734893;81;20996;-63
2021/07/27 03:51:04;;;;;;;17.95;10.65;;;;;;;20.43;100.00;99285.78;1731630;81;21080;-63
2021/07/27 03:53:33;;;;;;;19.82;10.00;;;;;;;20.51;100.00;99285.91;1731886;81;20987;-64
2021/07/27 03:56:02;;;;;;;19.62;10.43;;;;;;;20.56;100.00;99277.20;1735525;81;21421;-64
2021/07/27 03:58:33;;;;;;;14.78;9.35;;;;;;;20.64;100.00;99281.74;1724534;82;21359;-65
2021/07/27 04:01:05;;;;;;;11.00;9.40;;;;;;;20.75;100.00;99280.79;1722795;82;21372;-64
2021/07/27 04:03:33;;;;;;;;;;;;;;;20.83;100.00;99274.64;1732773;81;21098;-65
2021/07/27 04:06:01;;;;;;;13.13;9.03;;;;;;;20.91;100.00;99272.94;1693345;82;20421;-65
2021/07/27 04:08:29;;;;;;;20.00;9.45;;;;;;;20.97;100.00;99274.88;1692693;83;21321;-64
2021/07/27 04:11:05;;;;;;;14.05;9.45;;;;;;;21.05;100.00;99270.48;1716445;81;20992;-64
2021/07/27 04:13:35;;;;;;;19.48;9.20;;;;;;;21.14;100.00;99270.05;1722848;81;20984;-66
2021/07/27 04:16:03;;;;;;;16.35;9.80;;;;;;;21.23;100.00;99273.67;1722518;81;21724;-66
2021/07/27 04:18:33;;;;;;;14.98;9.90;;;;;;;21.31;100.00;99268.84;1713305;82;20931;-66
2021/07/27 04:21:01;;;;;;;18.32;10.93;;;;;;;21.39;100.00;99259.55;1725024;82;20919;-66
2021/07/27 04:23:29;;;;;;;14.70;10.63;;;;;;;21.46;100.00;99257.84;1728008;81;20989;-66
2021/07/27 04:25:59;;;;;;;15.28;10.00;;;;;;;21.51;100.00;99254.45;1722737;82;20920;-67
2021/07/27 04:28:28;;;;;;;18.62;11.15;;;;;;;21.59;100.00;99259.45;1725187;81;21073;-66
2021/07/27 04:30:55;;;;;;;19.87;10.65;;;;;;;21.63;100.00;99262.37;1716789;82;20927;-66
2021/07/27 04:33:32;;;;;;;18.42;10.58;;;;;;;21.67;100.00;99265.31;1712819;82;20951;-66
2021/07/27 04:36:00;;;;;;;50.83;14.50;;;;;;;21.70;100.00;99262.47;1721586;83;21399;-66
2021/07/27 04:38:28;;;;;;;57.25;14.10;;;;;;;21.76;100.00;99255.48;1722901;82;20849;-67
2021/07/27 04:40:56;;;;;;;19.85;10.82;;;;;;;21.79;100.00;99258.02;1722854;81;21938;-67
2021/07/27 04:43:26;;;;;;;14.15;10.50;;;;;;;21.85;100.00;99261.73;1728320;81;21016;-67
2021/07/27 04:45:57;;;;;;;16.20;10.90;;;;;;;21.92;100.00;99255.58;1728116;81;21463;-66
2021/07/27 04:48:25;;;;;;;18.45;11.60;;;;;;;21.97;100.00;99258.91;1727974;82;21050;-66
2021/07/27 04:50:54;;;;;;;25.05;11.93;;;;;;;22.02;100.00;99260.02;1721470;83;22377;-65
2021/07/27 04:53:25;;;;;;;15.63;10.58;;;;;;;22.08;100.00;99274.51;1726510;81;21098;-67
2021/07/27 04:55:53;;;;;;;21.37;11.00;;;;;;;22.14;100.00;99267.48;1722783;81;20991;-65
2021/07/27 04:58:21;;;;;;;20.85;11.33;;;;;;;22.19;100.00;99273.01;1713871;81;20938;-65
2021/07/27 05:00:48;;;;;;;19.40;11.00;;;;;;;22.23;100.00;99271.03;1731417;81;20853;-69
2021/07/27 05:03:16;;;;;;;14.83;10.40;;;;;;;22.27;100.00;99272.64;1721389;81;20872;-70
2021/07/27 05:05:43;;;;;;;15.55;10.20;;;;;;;22.31;100.00;99276.91;1728023;81;21434;-70
2021/07/27 05:08:14;;;;;;;18.70;11.10;;;;;;;22.37;100.00;99273.91;1720776;81;21439;-70
2021/07/27 05:10:43;;;;;;;24.18;11.20;;;;;;;22.42;100.00;99269.16;1699498;83;20911;-72
2021/07/27 05:13:11;;;;;;;25.75;11.33;;;;;;;22.48;100.00;99275.55;1702934;82;20939;-71
2021/07/27 05:15:39;;;;;;;18.00;10.45;;;;;;;22.54;100.00;99271.19;1727555;82;21400;-72
2021/07/27 05:18:07;;;;;;;21.45;10.48;;;;;;;22.61;100.00;99267.70;1728072;81;21431;-70
2021/07/27 05:20:38;;;;;;;16.23;9.98;;;;;;;22.67;100.00;99269.19;1727997;81;21463;-71
2021/07/27 05:23:06;;;;;;;17.23;10.20;;;;;;;22.73;100.00;99268.42;1711372;82;20950;-71
2021/07/27 05:25:35;;;;;;;15.53;10.28;;;;;;;22.79;100.00;99261.36;1726387;81;21466;-70
2021/07/27 05:28:03;;;;;;;27.67;11.22;;;;;;;22.88;100.00;99260.89;1728094;82;20884;-71
2021/07/27 05:30:33;;;;;;;17.35;10.68;;;;;;;22.96;100.00;99255.09;1727889;81;21125;-74
2021/07/27 05:33:07;;;;;;;20.08;11.03;;;;;;;23.04;100.00;99258.70;1728088;81;20943;-72
2021/07/27 05:35:36;;;;;;;20.43;11.25;;;;;;;23.08;100.00;99255.77;1725888;81;20939;-69
2021/07/27 05:38:06;;;;;;;18.62;10.00;;;;;;;23.16;100.00;99260.72;1728068;82;20895;-68
2021/07/27 05:40:34;;;;;;;16.73;9.88;;;;;;;23.20;100.00;99255.11;1727565;81;20864;-69
2021/07/27 05:43:01;;;;;;;18.23;10.95;;;;;;;23.28;100.00;99263.23;1698402;82;21146;-70
2021/07/27 05:45:29;;;;;;;15.35;10.25;;;;;;;23.38;100.00;99269.36;1694565;83;20935;-70
2021/07/27 05:47:56;;;;;;;20.70;11.08;;;;;;;23.50;100.00;99269.13;1723988;81;20848;-71
2021/07/27 05:50:23;;;;;;;17.07;10.35;;;;;;;23.59;100.00;99261.91;1735269;81;20934;-69
2021/07/27 05:52:57;;;;;;;16.60;11.35;;;;;;;23.69;100.00;99256.41;1726469;81;20876;-71
2021/07/27 05:55:24;;;;;;;16.17;10.20;;;;;;;23.76;100.00;99261.83;1712954;81;21771;-68
2021/07/27 05:57:52;;;;;;;17.20;10.58;;;;;;;23.85;100.00;99261.30;1694283;83;20932;-71
2021/07/27 06:00:19;;;;;;;16.25;10.43;;;;;;;23.95;100.00;99258.05;1692876;83;21479;-71
2021/07/27 06:02:47;;;;;;;165.28;22.37;;;;;;;24.06;100.00;99259.63;1707689;82;20935;-72
2021/07/27 06:05:14;;;;;;;101.25;15.28;;;;;;;24.15;100.00;99256.42;1720659;82;20947;-71
2021/07/27 06:07:44;;;;;;;17.27;10.72;;;;;;;24.24;100.00;99256.34;1720691;82;21407;-71
2021/07/27 06:10:14;;;;;;;20.95;11.30;;;;;;;24.31;100.00;99261.79;1720974;82;20931;-71
2021/07/27 06:12:43;;;;;;;20.62;11.18;;;;;;;24.40;100.00;99270.66;1727568;81;20932;-71
2021/07/27 06:15:12;;;;;;;22.27;10.65;;;;;;;24.49;100.00;99263.36;1716049;82;20894;-71
2021/07/27 06:17:39;;;;;;;20.10;10.65;;;;;;;24.58;100.00;99265.98;1694227;82;20931;-71
2021/07/27 06:20:07;;;;;;;18.90;11.35;;;;;;;24.67;100.00;99268.14;1692563;84;21100;-71
2021/07/27 06:22:34;;;;;;;16.17;10.45;;;;;;;24.75;100.00;99266.70;1693351;82;20916;-70
2021/07/27 06:25:10;;;;;;;13.75;10.25;;;;;;;24.87;100.00;99268.24;1718185;82;20903;-71
2021/07/27 06:27:35;;;;;;;14.43;10.98;;;;;;;25.00;100.00;99269.23;1715450;82;21458;-71
2021/07/27 06:30:02;;;;;;;12.98;10.20;;;;;;;25.14;100.00;99260.30;1721106;82;21412;-70
2021/07/27 06:32:30;;;;;;;12.53;10.65;;;;;;;25.26;100.00;99266.25;1721436;82;21078;-73
2021/07/27 06:34:57;;;;;;;16.77;10.40;;;;;;;25.37;100.00;99267.77;1715412;82;20841;-73
2021/07/27 06:37:25;;;;;;;15.30;10.35;;;;;;;25.48;100.00;99269.29;1704739;82;20940;-74
2021/07/27 06:39:55;;;;;;;24.12;10.58;;;;;;;25.58;100.00;99272.29;1722468;82;20938;-72
2021/07/27 06:42:23;;;;;;;15.83;9.48;;;;;;;25.71;100.00;99271.41;1724763;81;20943;-70
2021/07/27 06:44:51;;;;;;;14.58;10.03;;;;;;;25.85;100.00;99272.33;1697180;81;21467;-70
2021/07/27 06:47:18;;;;;;;14.63;9.95;;;;;;;25.96;100.00;99267.06;1716139;82;20852;-70
2021/07/27 06:49:46;;;;;;;15.58;10.20;;;;;;;26.10;100.00;99263.46;1715071;82;20864;-70
2021/07/27 06:52:13;;;;;;;16.65;10.20;;;;;;;26.20;100.00;99260.03;1709059;82;20952;-70
2021/07/27 06:54:41;;;;;;;19.10;10.45;;;;;;;26.31;100.00;99263.34;1714650;82;20864;-69
2021/07/27 06:57:09;;;;;;;17.27;9.93;;;;;;;26.41;100.00;99262.25;1705569;81;21025;-69
2021/07/27 06:59:36;;;;;;;16.23;9.70;;;;;;;26.51;100.00;99260.67;1685036;83;20908;-70
2021/07/27 07:02:04;;;;;;;16.67;9.20;;;;;;;26.60;100.00;99259.55;1686038;83;20903;-70
2021/07/27 07:04:34;;;;;;;16.23;8.98;;;;;;;26.71;100.00;99261.49;1686961;82;20965;-70
2021/07/27 07:07:02;;;;;;;14.75;8.75;;;;;;;26.82;100.00;99255.31;1685742;83;20994;-71
2021/07/27 07:09:29;;;;;;;17.05;9.23;;;;;;;26.93;100.00;99262.19;1709261;82;21117;-71
2021/07/27 07:11:58;;;;;;;13.15;8.73;;;;;;;27.05;100.00;99261.37;1719946;81;21354;-69
2021/07/27 07:14:25;;;;;;;15.13;8.98;;;;;;;27.12;100.00;99256.38;1719341;81;20920;-69
2021/07/27 07:16:53;;;;;;;17.35;8.60;;;;;;;27.18;100.00;99254.09;1710308;82;20897;-69
2021/07/27 07:19:20;;;;;;;53.15;11.83;;;;;;;27.26;100.00;99252.17;1713207;82;21007;-68
2021/07/27 07:21:48;;;;;;;17.25;9.50;;;;;;;27.35;100.00;99252.85;1693255;82;21793;-72
2021/07/27 07:24:15;;;;;;;16.80;9.45;;;;;;;27.45;100.00;99253.08;1715269;82;21510;-70
2021/07/27 07:29:51;;;;;;;17.10;8.98;;;;;;;27.74;100.00;99249.58;1809694;78;22680;-72
2021/07/27 07:32:19;;;;;;;13.68;8.33;;;;;;;27.80;100.00;99247.77;1790817;79;20923;-72
2021/07/27 07:34:46;;;;;;;17.05;8.10;;;;;;;27.90;100.00;99261.00;1787003;79;21140;-71
2021/07/27 07:37:14;;;;;;;14.47;7.85;;;;;;;27.95;100.00;99255.27;1810543;78;20922;-72
2021/07/27 07:39:42;;;;;;;18.90;9.23;;;;;;;27.98;100.00;99245.05;1785694;79;20998;-72
2021/07/27 07:42:10;;;;;;;12.35;8.15;;;;;;;28.06;100.00;99245.33;1785429;80;21022;-72
2021/07/27 07:44:38;;;;;;;15.23;8.15;;;;;;;28.09;100.00;99236.09;1790615;79;21470;-71
2021/07/27 07:47:06;;;;;;;19.50;7.90;;;;;;;28.13;100.00;99238.94;1792021;79;21132;-72
2021/07/27 07:49:35;;;;;;;17.30;7.22;;;;;;;28.22;100.00;99236.88;1785469;80;21466;-72
2021/07/27 07:52:03;;;;;;;10.90;6.95;;;;;;;28.28;100.00;99239.14;1789274;79;21699;-71
2021/07/27 07:54:32;;;;;;;12.63;7.28;;;;;;;28.36;100.00;99243.48;1809278;78;20895;-75
2021/07/27 07:57:00;;;;;;;14.10;7.10;;;;;;;28.47;100.00;99234.53;1785908;79;21378;-74
2021/07/27 07:59:28;;;;;;;13.60;7.35;;;;;;;28.52;100.00;99242.69;1792825;79;21063;-75
2021/07/27 08:01:58;;;;;;;12.65;6.92;;;;;;;28.52;100.00;99237.26;1785718;80;21409;-74
2021/07/27 08:04:26;;;;;;;14.68;6.90;;;;;;;28.49;100.00;99237.99;1796485;78;20887;-77
2021/07/27 08:06:53;;;;;;;17.75;6.35;;;;;;;28.42;100.00;99240.32;1795294;78;20935;-72
2021/07/27 08:09:21;;;;;;;9.10;6.47;;;;;;;28.39;100.00;99235.62;1785374;80;20899;-74
2021/07/27 08:11:50;;;;;;;7.55;5.90;;;;;;;28.38;100.00;99234.77;1786814;79;21139;-73
2021/07/27 08:14:19;;;;;;;17.65;6.92;;;;;;;28.43;100.00;99242.05;1786325;80;20883;-73
2021/07/27 08:16:51;;;;;;;12.03;5.83;;;;;;;28.49;100.00;99243.42;1786486;79;20943;-74
2021/07/27 08:19:18;;;;;;;8.15;5.75;;;;;;;28.51;100.00;99237.38;1786637;79;20967;-72
2021/07/27 08:21:46;;;;;;;16.55;5.35;;;;;;;28.52;100.00;99236.39;1787159;78;20970;-73
2021/07/27 08:24:14;;;;;;;9.70;5.53;;;;;;;28.56;100.00;99239.23;1786933;79;21144;-73
2021/07/27 08:26:43;;;;;;;9.78;4.90;;;;;;;28.58;94.85;99241.34;1786541;80;21466;-73
2021/07/27 08:29:12;;;;;;;10.30;5.20;;;;;;;28.57;91.30;99249.11;1793410;79;20990;-72
2021/07/27 08:31:40;;;;;;;20.02;4.95;;;;;;;28.62;93.93;99256.89;1740413;82;20948;-70
2021/07/27 08:34:08;;;;;;;13.22;5.58;;;;;;;28.73;96.97;99260.98;1735487;80;21423;-71
2021/07/27 08:36:36;;;;;;;13.08;4.60;;;;;;;28.90;91.85;99266.00;1734657;82;21154;-70
2021/07/27 08:39:04;;;;;;;8.15;4.78;;;;;;;29.09;88.62;99270.81;1739756;82;21495;-71
2021/07/27 08:41:32;;;;;;;13.00;4.37;;;;;;;29.29;83.69;99271.92;1713384;83;21565;-71
2021/07/27 08:44:00;;;;;;;8.48;4.40;;;;;;;29.41;72.08;99273.67;1740138;82;21436;-70
2021/07/27 08:46:27;;;;;;;8.78;4.17;;;;;;;29.45;71.08;99275.17;1748588;80;20852;-72
2021/07/27 08:48:55;;;;;;;10.23;4.03;;;;;;;29.43;69.92;99269.87;1744035;81;21123;-71
2021/07/27 08:51:24;;;;;;;10.85;4.42;;;;;;;29.43;71.18;99271.69;1740098;82;20928;-71
2021/07/27 08:53:52;;;;;;;8.05;3.83;;;;;;;29.37;65.67;99263.55;1740200;82;21478;-71
2021/07/27 08:56:20;;;;;;;21.85;5.45;;;;;;;29.31;65.04;99257.22;1740157;82;20986;-71
2021/07/27 08:58:48;;;;;;;12.80;4.25;;;;;;;29.23;62.30;99258.34;1750552;81;21097;-71
2021/07/27 09:01:24;;;;;;;7.33;4.15;;;;;;;29.16;65.61;99265.26;1744495;81;21163;-71
2021/07/27 09:03:53;;;;;;;10.55;4.62;;;;;;;29.12;72.09;99262.42;1744449;80;20973;-71
2021/07/27 09:06:23;;;;;;;14.45;4.33;;;;;;;29.11;74.70;99268.84;1740161;82;21526;-72
2021/07/27 09:09:05;;;;;;;11.68;5.00;;;;;;;29.11;75.67;99272.91;1742581;81;21639;-70
2021/07/27 09:11:35;;;;;;;9.95;4.30;;;;;;;29.14;72.35;99268.59;1752251;81;20992;-73
2021/07/27 09:14:03;;;;;;;10.45;4.35;;;;;;;29.19;74.28;99261.43;1740379;80;21171;-72
2021/07/27 09:16:30;;;;;;;9.98;4.53;;;;;;;29.25;75.24;99273.16;1743427;81;20901;-74
2021/07/27 09:18:59;;;;;;;7.42;4.35;;;;;;;29.30;72.92;99267.72;1738360;82;20936;-73
2021/07/27 09:21:27;;;;;;;7.47;4.25;;;;;;;29.34;69.92;99270.59;1707929;82;20916;-73
2021/07/27 09:23:56;;;;;;;8.05;3.95;;;;;;;29.33;68.41;99272.94;1774597;80;20889;-72
2021/07/27 09:26:24;;;;;;;7.35;3.87;;;;;;;29.34;66.35;99265.64;1774354;80;21227;-72
2021/07/27 09:29:03;;;;;;;16.32;4.55;;;;;;;29.37;67.23;99267.62;1776261;80;20980;-72
2021/07/27 09:31:32;;;;;;;9.73;4.05;;;;;;;29.40;67.25;99269.22;1782536;80;21023;-72
2021/07/27 09:34:11;;;;;;;10.70;3.92;;;;;;;29.44;65.57;99268.87;1783031;80;20909;-72
2021/07/27 09:36:40;;;;;;;5.95;3.80;;;;;;;29.45;62.92;99269.25;1782715;80;20973;-72
2021/07/27 09:39:08;;;;;;;5.70;3.87;;;;;;;29.54;64.52;99262.19;1778156;79;21191;-71
2021/07/27 09:41:36;;;;;;;7.53;4.30;;;;;;;29.69;67.20;99251.90;1797846;78;20876;-72
2021/07/27 09:44:07;;;;;;;7.30;4.05;;;;;;;29.87;64.14;99251.75;1782843;80;20935;-70
2021/07/27 09:46:35;;;;;;;9.30;4.30;;;;;;;30.06;61.08;99253.31;1782840;80;21426;-71
2021/07/27 09:49:04;;;;;;;7.58;3.95;;;;;;;30.25;58.84;99247.16;1782570;80;20999;-68
2021/07/27 09:51:33;;;;;;;14.03;4.15;;;;;;;30.45;63.11;99242.75;1782535;80;21061;-70
2021/07/27 09:54:04;;;;;;;13.08;4.28;;;;;;;30.69;61.18;99245.23;1782462;80;20892;-70
2021/07/27 09:56:32;;;;;;;10.50;3.85;;;;;;;30.89;58.51;99243.00;1717548;80;21430;-69
2021/07/27 09:59:00;;;;;;;9.03;3.98;;;;;;;31.06;54.17;99243.36;1783063;80;21411;-70
2021/07/27 10:01:28;;;;;;;13.05;4.15;;;;;;;31.09;51.87;99248.54;1782633;80;21532;-70
2021/07/27 10:04:00;;;;;;;5.30;3.65;;;;;;;31.03;50.27;99247.23;1782536;80;21523;-69
2021/07/27 10:06:39;;;;;;;7.78;4.00;;;;;;;30.93;50.00;99241.73;1782469;80;20919;-70
2021/07/27 10:09:04;;;;;;;40.45;5.97;;;;;;;30.89;51.84;99251.67;1780793;80;20900;-69
2021/07/27 10:11:39;;;;;;;17.17;4.95;;;;;;;30.84;50.93;99248.50;1782766;80;21469;-70
2021/07/27 10:14:12;;;;;;;11.45;4.33;;;;;;;30.84;52.70;99242.55;1782668;79;20994;-71
2021/07/27 10:16:40;;;;;;;8.60;4.00;;;;;;;30.87;57.16;99242.77;1782793;79;21084;-71
2021/07/27 10:19:23;;;;;;;9.78;3.95;;;;;;;30.86;56.53;99231.52;1800316;78;21477;-70
2021/07/27 10:22:06;;;;;;;18.45;4.80;;;;;;;30.88;56.99;99231.74;1784544;79;20892;-71
2021/07/27 10:24:44;;;;;;;8.60;4.17;;;;;;;30.95;60.48;99228.84;1747859;82;20888;-69
2021/07/27 10:27:21;;;;;;;132.65;13.75;;;;;;;31.04;58.04;99225.80;1782497;80;20983;-70
2021/07/27 10:29:49;;;;;;;12.45;4.62;;;;;;;31.07;58.11;99228.24;1779295;79;21155;-69
2021/07/27 10:32:20;;;;;;;6.40;3.85;;;;;;;31.00;55.84;99226.56;1722242;81;21012;-69
2021/07/27 10:34:48;;;;;;;11.20;4.12;;;;;;;30.93;54.67;99224.03;1726030;82;21004;-69
2021/07/27 10:37:16;;;;;;;7.53;4.00;;;;;;;30.85;55.98;99223.84;1719788;82;20992;-69
2021/07/27 10:39:55;;;;;;;11.70;4.20;;;;;;;30.78;56.01;99219.08;1740096;82;20977;-69
2021/07/27 10:42:23;;;;;;;7.55;3.87;;;;;;;30.76;56.49;99219.22;1711379;82;21076;-69
2021/07/27 10:44:52;;;;;;;9.38;4.42;;;;;;;30.78;57.80;99219.08;1703298;84;21464;-68
2021/07/27 10:47:24;;;;;;;10.93;4.05;;;;;;;30.77;61.81;99220.08;1704301;83;21030;-69
2021/07/27 10:50:09;;;;;;;7.28;4.30;;;;;;;30.70;57.54;99215.64;1720005;82;21563;-69
2021/07/27 10:52:36;;;;;;;16.15;4.62;;;;;;;30.61;54.38;99209.64;1755180;80;20877;-71
2021/07/27 10:55:07;;;;;;;8.75;4.25;;;;;;;30.55;56.85;99205.56;1760691;80;21767;-70
2021/07/27 10:57:41;;;;;;;16.50;4.50;;;;;;;30.50;57.74;99205.11;1778921;80;20943;-68
2021/07/27 11:00:10;;;;;;;6.90;4.08;;;;;;;30.42;55.64;99200.83;1747365;80;20944;-74
2021/07/27 11:02:39;;;;;;;12.03;4.70;;;;;;;30.36;56.78;99199.51;1779319;80;20848;-71
2021/07/27 11:05:08;;;;;;;5.92;3.75;;;;;;;30.30;58.77;99195.09;1779398;80;21446;-73
2021/07/27 11:07:36;;;;;;;8.45;4.30;;;;;;;30.26;58.58;99199.05;1757057;80;21142;-74
2021/07/27 11:10:05;;;;;;;7.35;4.50;;;;;;;30.24;58.66;99194.23;1722034;82;20885;-69
2021/07/27 11:12:41;;;;;;;19.60;4.87;;;;;;;30.26;61.69;99194.97;1697674;82;21526;-69
2021/07/27 11:15:22;;;;;;;12.03;4.30;;;;;;;30.28;59.98;99188.92;1730934;82;20936;-71
2021/07/27 11:17:59;;;;;;;7.12;3.75;;;;;;;30.34;60.43;99186.53;1725198;82;20877;-69
2021/07/27 11:20:32;;;;;;;16.82;3.90;;;;;;;30.40;59.08;99189.22;1734048;82;21379;-69
2021/07/27 11:23:11;;;;;;;11.00;3.50;;;;;;;30.44;59.75;99187.95;1782851;79;21054;-71
2021/07/27 11:25:39;;;;;;;7.28;3.87;;;;;;;30.45;52.97;99188.31;1774584;79;20884;-71
2021/07/27 11:28:15;;;;;;;6.90;3.90;;;;;;;30.45;52.40;99183.38;1774332;81;20912;-72
2021/07/27 11:30:43;;;;;;;9.20;4.30;;;;;;;30.46;52.86;99190.05;1768367;81;20947;-69
2021/07/27 11:33:15;;;;;;;6.40;3.92;;;;;;;30.51;55.41;99187.78;1771355;80;21168;-69
2021/07/27 11:35:46;;;;;;;4.97;4.03;;;;;;;30.60;57.19;99185.64;1782594;80;20939;-69
2021/07/27 11:38:32;;;;;;;8.23;4.17;;;;;;;30.75;58.84;99185.31;1782376;80;20971;-71
2021/07/27 11:41:10;;;;;;;9.93;4.47;;;;;;;30.87;60.51;99184.22;1774458;80;20896;-70
2021/07/27 11:43:42;;;;;;;10.85;4.75;;;;;;;30.97;63.84;99183.25;1750083;80;21494;-70
2021/07/27 11:46:16;;;;;;;9.83;4.33;;;;;;;31.07;64.66;99175.11;1750285;80;21169;-71
2021/07/27 11:48:44;;;;;;;32.15;6.20;;;;;;;31.13;63.29;99174.56;1749599;80;20979;-71
2021/07/27 11:51:13;;;;;;;23.27;4.45;;;;;;;31.12;61.27;99170.11;1765437;79;20927;-70
2021/07/27 11:53:41;;;;;;;8.23;4.03;;;;;;;31.10;60.68;99177.56;1766689;80;20923;-69